createdAt,value
2024-04-25T00:00:53.070Z,7.22
2024-04-25T00:03:20.475Z,9.48
2024-04-25T00:05:48.047Z,7.45
2024-04-25T00:08:15.420Z,7.28
2024-04-25T00:10:42.959Z,6.50
2024-04-25T00:13:10.368Z,7.93
2024-04-25T00:15:37.799Z,6.80
2024-04-25T00:18:05.491Z,9.35
2024-04-25T00:20:32.843Z,7.57
2024-04-25T00:23:00.134Z,8.35
2024-04-25T00:25:27.501Z,8.63
2024-04-25T00:27:55.713Z,7.65
2024-04-25T00:30:23.240Z,6.68
2024-04-25T00:32:53.789Z,7.05
2024-04-25T00:35:21.270Z,7.75
2024-04-25T00:37:48.758Z,9.40
2024-04-25T00:40:16.192Z,7.57
2024-04-25T00:42:43.494Z,7.80
2024-04-25T00:45:10.911Z,7.20
2024-04-25T00:47:39.013Z,8.73
2024-04-25T00:50:06.947Z,8.05
2024-04-25T00:52:34.518Z,8.40
2024-04-25T00:55:05.871Z,10.68
2024-04-25T00:57:35.479Z,8.48
2024-04-25T01:00:03.378Z,7.55
2024-04-25T01:02:31.610Z,7.43
2024-04-25T01:05:01.468Z,6.95
2024-04-25T01:07:28.756Z,7.45
2024-04-25T01:09:57.710Z,7.65
2024-04-25T01:12:26.280Z,8.20
2024-04-25T01:14:54.036Z,7.63
2024-04-25T01:17:21.353Z,7.15
2024-04-25T01:19:48.850Z,8.05
2024-04-25T01:22:16.366Z,6.20
2024-04-25T01:24:43.568Z,7.32
2024-04-25T01:27:11.078Z,8.38
2024-04-25T01:29:38.624Z,7.35
2024-04-25T01:32:07.421Z,6.63
2024-04-25T01:34:35.005Z,7.15
2024-04-25T01:37:02.301Z,7.00
2024-04-25T01:39:30.120Z,8.18
2024-04-25T01:41:57.396Z,7.95
2024-04-25T01:44:24.930Z,6.60
2024-04-25T01:46:56.219Z,7.15
2024-04-25T01:49:23.644Z,6.85
2024-04-25T01:51:50.914Z,7.70
2024-04-25T01:54:18.293Z,8.02
2024-04-25T01:56:45.585Z,7.43
2024-04-25T01:59:12.921Z,6.50
2024-04-25T02:01:40.191Z,8.25
2024-04-25T02:04:07.530Z,6.65
2024-04-25T02:06:34.921Z,6.95
2024-04-25T02:09:02.276Z,7.22
2024-04-25T02:11:31.644Z,7.18
2024-04-25T02:13:58.917Z,6.40
2024-04-25T02:16:26.203Z,7.38
2024-04-25T02:18:53.701Z,7.72
2024-04-25T02:21:39.558Z,7.05
2024-04-25T02:24:25.568Z,7.85
2024-04-25T02:26:52.690Z,7.75
2024-04-25T02:29:19.926Z,6.80
2024-04-25T02:31:47.457Z,10.55
2024-04-25T02:34:14.759Z,7.45
2024-04-25T02:36:41.956Z,7.05
2024-04-25T02:39:10.679Z,7.57
2024-04-25T02:41:38.082Z,7.88
2024-04-25T02:44:05.687Z,7.80
2024-04-25T02:46:33.018Z,8.55
2024-04-25T02:49:00.476Z,8.40
2024-04-25T02:51:29.204Z,7.63
2024-04-25T02:53:56.530Z,7.53
2024-04-25T02:56:23.965Z,10.57
2024-04-25T02:58:51.330Z,7.40
2024-04-25T03:01:18.510Z,6.90
2024-04-25T03:03:45.843Z,7.97
2024-04-25T03:06:13.475Z,8.43
2024-04-25T03:08:40.971Z,7.18
2024-04-25T03:11:08.416Z,9.00
2024-04-25T03:13:38.790Z,8.38
2024-04-25T03:16:08.280Z,9.85
2024-04-25T03:18:36.005Z,8.65
2024-04-25T03:21:07.720Z,8.95
2024-04-25T03:23:37.657Z,9.02
2024-04-25T03:26:06.059Z,8.30
2024-04-25T03:28:34.437Z,9.48
2024-04-25T03:31:02.800Z,8.85
2024-04-25T03:33:30.433Z,10.05
2024-04-25T03:35:57.891Z,8.95
2024-04-25T03:38:25.261Z,11.55
2024-04-25T03:40:52.672Z,10.48
2024-04-25T03:43:20.036Z,9.95
2024-04-25T03:45:47.402Z,10.75
2024-04-25T03:48:14.865Z,11.18
2024-04-25T03:50:42.559Z,11.77
2024-04-25T03:53:13.512Z,13.70
2024-04-25T03:55:43.072Z,14.25
2024-04-25T03:58:10.364Z,13.30
2024-04-25T04:00:37.793Z,11.75
2024-04-25T04:03:05.516Z,11.57
2024-04-25T04:05:33.038Z,15.95
2024-04-25T04:08:00.519Z,12.88
2024-04-25T04:10:27.939Z,11.05
2024-04-25T04:12:55.250Z,11.05
2024-04-25T04:15:22.829Z,10.45
2024-04-25T04:17:52.863Z,10.73
2024-04-25T04:20:20.146Z,12.32
2024-04-25T04:22:47.637Z,12.20
2024-04-25T04:25:14.911Z,11.85
2024-04-25T04:27:42.196Z,11.93
2024-04-25T04:30:09.807Z,10.40
2024-04-25T04:32:37.212Z,12.50
2024-04-25T04:35:05.438Z,10.48
2024-04-25T04:37:32.927Z,9.52
2024-04-25T04:40:00.437Z,9.70
2024-04-25T04:42:27.898Z,9.15
2024-04-25T04:44:55.157Z,10.43
2024-04-25T04:47:22.636Z,9.18
2024-04-25T04:49:50.204Z,11.13
2024-04-25T04:52:20.027Z,9.65
2024-04-25T04:54:47.393Z,9.13
2024-04-25T04:57:14.755Z,9.52
2024-04-25T04:59:42.138Z,10.43
2024-04-25T05:02:09.705Z,10.13
2024-04-25T05:04:37.234Z,9.60
2024-04-25T05:07:05.314Z,9.32
2024-04-25T05:09:32.844Z,9.57
2024-04-25T05:12:00.344Z,8.90
2024-04-25T05:14:27.911Z,8.35
2024-04-25T05:16:55.317Z,12.02
2024-04-25T05:19:24.776Z,8.05
2024-04-25T05:21:55.879Z,8.48
2024-04-25T05:24:23.314Z,8.32
2024-04-25T05:26:50.687Z,12.27
2024-04-25T05:29:18.108Z,11.18
2024-04-25T05:31:45.569Z,8.45
2024-04-25T05:34:12.873Z,6.32
2024-04-25T05:36:40.281Z,7.55
2024-04-25T05:39:07.710Z,8.73
2024-04-25T05:41:35.176Z,5.50
2024-04-25T05:44:02.514Z,6.78
2024-04-25T05:46:29.795Z,9.07
2024-04-25T05:48:57.226Z,6.97
2024-04-25T05:51:24.674Z,7.90
2024-04-25T05:53:52.087Z,7.32
2024-04-25T05:56:19.492Z,5.93
2024-04-25T05:58:50.202Z,6.90
2024-04-25T06:01:19.486Z,7.35
2024-04-25T06:03:47.414Z,6.95
2024-04-25T06:06:14.995Z,7.03
2024-04-25T06:08:42.416Z,7.65
2024-04-25T06:11:13.061Z,9.73
2024-04-25T06:13:42.916Z,8.75
2024-04-25T06:16:11.231Z,6.80
2024-04-25T06:18:38.656Z,9.45
2024-04-25T06:21:06.202Z,8.63
2024-04-25T06:23:34.278Z,7.25
2024-04-25T06:26:01.710Z,7.25
2024-04-25T06:28:29.084Z,10.80
2024-04-25T06:31:01.330Z,11.65
2024-04-25T06:33:29.090Z,6.78
2024-04-25T06:35:56.495Z,8.48
2024-04-25T06:38:24.067Z,5.97
2024-04-25T06:40:55.142Z,8.18
2024-04-25T06:43:22.683Z,6.30
2024-04-25T06:45:49.874Z,6.10
2024-04-25T06:48:17.401Z,4.95
2024-04-25T06:50:44.985Z,7.63
2024-04-25T06:53:14.000Z,8.45
2024-04-25T06:55:41.480Z,7.43
2024-04-25T06:58:09.158Z,7.45
2024-04-25T07:00:37.875Z,8.70
2024-04-25T07:03:05.618Z,6.53
2024-04-25T07:05:33.084Z,7.70
2024-04-25T07:08:00.461Z,5.75
2024-04-25T07:10:27.880Z,8.40
2024-04-25T07:12:55.235Z,5.43
2024-04-25T07:15:25.881Z,6.45
2024-04-25T07:17:56.890Z,7.47
2024-04-25T07:20:24.217Z,11.55
2024-04-25T07:22:51.636Z,7.53
2024-04-25T07:25:18.961Z,7.80
2024-04-25T07:27:46.443Z,8.18
2024-04-25T07:30:13.812Z,4.88
2024-04-25T07:32:41.760Z,4.13
2024-04-25T07:35:09.371Z,4.85
2024-04-25T07:37:38.196Z,3.67
2024-04-25T07:40:06.674Z,3.47
2024-04-25T07:42:34.032Z,3.67
2024-04-25T07:45:03.150Z,3.00
2024-04-25T07:47:30.815Z,5.55
2024-04-25T07:49:59.479Z,3.70
2024-04-25T07:52:29.842Z,3.70
2024-04-25T07:54:57.499Z,4.32
2024-04-25T07:57:24.919Z,3.00
2024-04-25T07:59:55.077Z,3.60
2024-04-25T08:02:23.632Z,5.75
2024-04-25T08:04:51.508Z,4.70
2024-04-25T08:07:18.959Z,5.05
2024-04-25T08:09:46.368Z,2.35
2024-04-25T08:12:14.864Z,1.77
2024-04-25T08:14:45.901Z,1.63
2024-04-25T08:17:13.448Z,3.38
2024-04-25T08:19:40.857Z,2.35
2024-04-25T08:22:08.113Z,2.65
2024-04-25T08:24:35.476Z,1.75
2024-04-25T08:27:02.832Z,1.95
2024-04-25T08:29:30.190Z,1.55
2024-04-25T08:31:57.646Z,1.48
2024-04-25T08:34:25.149Z,1.27
2024-04-25T08:36:52.677Z,4.63
2024-04-25T08:39:20.063Z,3.67
2024-04-25T08:41:49.887Z,1.23
2024-04-25T08:44:17.977Z,0.88
2024-04-25T08:46:49.351Z,2.10
2024-04-25T08:49:18.044Z,5.65
2024-04-25T08:51:47.237Z,0.85
2024-04-25T08:54:19.554Z,1.55
2024-04-25T08:56:46.968Z,1.83
2024-04-25T08:59:14.237Z,2.00
2024-04-25T09:01:44.672Z,2.15
2024-04-25T09:04:18.119Z,1.35
2024-04-25T09:06:47.159Z,2.15
2024-04-25T09:09:14.414Z,1.50
2024-04-25T09:11:42.219Z,1.90
2024-04-25T09:14:11.641Z,1.45
2024-04-25T09:16:39.386Z,2.55
2024-04-25T09:19:08.828Z,2.20
2024-04-25T09:21:37.971Z,1.20
2024-04-25T09:24:05.572Z,1.30
2024-04-25T09:26:34.943Z,1.58
2024-04-25T09:29:03.155Z,1.20
2024-04-25T09:31:33.091Z,1.60
2024-04-25T09:34:00.613Z,1.77
2024-04-25T09:36:29.724Z,2.05
2024-04-25T09:38:57.316Z,2.20
2024-04-25T09:41:31.659Z,1.65
2024-04-25T09:43:59.399Z,2.50
2024-04-25T09:46:39.939Z,1.52
2024-04-25T09:49:11.743Z,2.08
2024-04-25T09:51:47.734Z,1.77
2024-04-25T09:54:27.509Z,1.80
2024-04-25T09:57:11.186Z,2.13
2024-04-25T09:59:42.303Z,1.73
2024-04-25T10:02:18.675Z,1.42
2024-04-25T10:04:47.495Z,2.67
2024-04-25T10:07:18.920Z,1.20
2024-04-25T10:09:49.908Z,1.67
2024-04-25T10:12:25.307Z,1.50
2024-04-25T10:15:04.820Z,1.63
2024-04-25T10:17:36.358Z,1.65
2024-04-25T10:20:06.596Z,2.38
2024-04-25T10:22:38.643Z,1.40
2024-04-25T10:25:16.689Z,3.60
2024-04-25T10:27:58.615Z,2.58
2024-04-25T10:30:27.493Z,2.30
2024-04-25T10:32:55.800Z,1.42
2024-04-25T10:35:24.244Z,2.83
2024-04-25T10:37:52.457Z,1.98
2024-04-25T10:40:21.611Z,1.52
2024-04-25T10:43:04.088Z,1.75
2024-04-25T10:45:34.783Z,3.58
2024-04-25T10:48:02.472Z,1.38
2024-04-25T10:50:31.481Z,4.18
2024-04-25T10:52:59.191Z,5.30
2024-04-25T10:55:26.606Z,6.38
2024-04-25T10:57:55.740Z,1.20
2024-04-25T11:00:25.044Z,2.40
2024-04-25T11:02:52.607Z,2.83
2024-04-25T11:05:20.092Z,1.65
2024-04-25T11:07:47.663Z,1.42
2024-04-25T11:10:17.731Z,2.35
2024-04-25T11:12:46.196Z,0.70
2024-04-25T11:15:17.959Z,2.80
2024-04-25T11:17:56.409Z,1.67
2024-04-25T11:20:36.888Z,4.00
2024-04-25T11:23:17.912Z,2.75
2024-04-25T11:25:49.983Z,3.22
2024-04-25T11:28:19.969Z,1.48
2024-04-25T11:30:48.117Z,5.05
2024-04-25T11:33:21.968Z,3.10
2024-04-25T11:35:49.799Z,1.90
2024-04-25T11:38:17.756Z,2.17
2024-04-25T11:40:46.853Z,2.25
2024-04-25T11:43:15.665Z,3.67
2024-04-25T11:45:47.272Z,1.00
2024-04-25T11:48:19.782Z,3.30
2024-04-25T11:50:48.033Z,1.48
2024-04-25T11:53:15.768Z,1.38
2024-04-25T11:55:43.765Z,2.22
2024-04-25T11:58:11.583Z,3.92
2024-04-25T12:00:39.604Z,0.85
2024-04-25T12:03:07.363Z,2.33
2024-04-25T12:05:35.011Z,3.00
2024-04-25T12:08:05.269Z,1.98
2024-04-25T12:10:33.016Z,2.10
2024-04-25T12:13:00.576Z,3.00
2024-04-25T12:15:28.007Z,1.45
2024-04-25T12:17:55.647Z,1.05
2024-04-25T12:20:23.067Z,1.52
2024-04-25T12:22:52.691Z,2.85
2024-04-25T12:25:20.063Z,1.10
2024-04-25T12:27:47.577Z,1.50
2024-04-25T12:30:14.873Z,1.30
2024-04-25T12:32:42.463Z,5.97
2024-04-25T12:35:09.860Z,0.95
2024-04-25T12:37:37.226Z,1.30
2024-04-25T12:40:04.820Z,3.15
2024-04-25T12:42:32.182Z,1.20
2024-04-25T12:44:59.609Z,2.25
2024-04-25T12:47:27.234Z,2.22
2024-04-25T12:49:54.591Z,1.48
2024-04-25T12:52:22.032Z,2.92
2024-04-25T12:54:49.321Z,2.03
2024-04-25T12:57:22.087Z,0.93
2024-04-25T12:59:51.812Z,0.98
2024-04-25T13:02:19.507Z,3.22
2024-04-25T13:04:46.925Z,1.42
2024-04-25T13:07:14.594Z,3.38
2024-04-25T13:09:41.959Z,1.80
2024-04-25T13:12:09.551Z,2.67
2024-04-25T13:14:37.088Z,2.33
2024-04-25T13:17:04.683Z,3.50
2024-04-25T13:19:31.898Z,2.65
2024-04-25T13:21:59.309Z,1.75
2024-04-25T13:24:26.596Z,1.50
2024-04-25T13:26:53.973Z,1.90
2024-04-25T13:29:21.239Z,3.15
2024-04-25T13:31:48.593Z,2.25
2024-04-25T13:34:17.742Z,1.48
2024-04-25T13:36:45.160Z,1.77
2024-04-25T13:39:12.511Z,0.52
2024-04-25T13:41:39.980Z,1.95
2024-04-25T13:44:07.400Z,1.52
2024-04-25T13:46:35.568Z,1.33
2024-04-25T13:49:04.101Z,2.20
2024-04-25T13:51:31.810Z,1.20
2024-04-25T13:54:00.571Z,2.00
2024-04-25T13:56:28.382Z,2.58
2024-04-25T13:58:55.689Z,3.05
2024-04-25T14:01:23.042Z,1.20
2024-04-25T14:03:50.448Z,3.05
2024-04-25T14:06:17.933Z,3.90
2024-04-25T14:08:45.353Z,2.25
2024-04-25T14:11:17.319Z,2.95
2024-04-25T14:13:44.820Z,1.63
2024-04-25T14:16:12.632Z,2.13
2024-04-25T14:18:40.484Z,1.40
2024-04-25T14:21:07.858Z,2.92
2024-04-25T14:23:35.304Z,1.58
2024-04-25T14:26:21.271Z,4.82
2024-04-25T14:28:54.183Z,7.07
2024-04-25T14:31:21.625Z,4.97
2024-04-25T14:33:49.670Z,3.25
2024-04-25T14:36:20.613Z,5.85
2024-04-25T14:38:48.543Z,1.92
2024-04-25T14:41:16.790Z,1.30
2024-04-25T14:43:47.064Z,2.47
2024-04-25T14:46:16.334Z,1.27
2024-04-25T14:48:44.627Z,2.85
2024-04-25T14:51:12.850Z,1.35
2024-04-25T14:53:40.993Z,1.83
2024-04-25T14:56:08.464Z,2.03
2024-04-25T14:58:36.883Z,1.40
2024-04-25T15:01:06.013Z,5.28
2024-04-25T15:03:34.861Z,1.80
2024-04-25T15:06:02.318Z,1.77
2024-04-25T15:08:30.837Z,2.70
2024-04-25T15:10:59.455Z,2.53
2024-04-25T15:13:27.685Z,1.75
2024-04-25T15:15:59.673Z,1.33
2024-04-25T15:18:29.248Z,3.35
2024-04-25T15:20:56.709Z,1.73
2024-04-25T15:23:25.706Z,1.58
2024-04-25T15:25:53.133Z,3.60
2024-04-25T15:28:20.485Z,1.77
2024-04-25T15:30:47.758Z,3.60
2024-04-25T15:33:15.930Z,3.72
2024-04-25T15:35:44.059Z,3.28
2024-04-25T15:38:11.519Z,3.22
2024-04-25T15:40:39.762Z,2.22
2024-04-25T15:43:07.452Z,2.22
2024-04-25T15:45:34.645Z,2.28
2024-04-25T15:48:02.139Z,4.00
2024-04-25T15:50:30.115Z,3.63
2024-04-25T15:52:57.466Z,2.40
2024-04-25T15:55:25.715Z,1.83
2024-04-25T15:57:56.088Z,2.67
2024-04-25T16:00:24.202Z,1.98
2024-04-25T16:02:51.911Z,2.90
2024-04-25T16:05:19.820Z,2.33
2024-04-25T16:07:47.258Z,3.00
2024-04-25T16:10:14.760Z,2.15
2024-04-25T16:12:42.199Z,2.42
2024-04-25T16:15:09.457Z,1.52
2024-04-25T16:17:36.949Z,2.35
2024-04-25T16:20:05.986Z,2.35
2024-04-25T16:22:33.356Z,2.17
2024-04-25T16:25:01.273Z,4.35
2024-04-25T16:27:29.381Z,2.75
2024-04-25T16:29:57.099Z,2.10
2024-04-25T16:32:24.537Z,1.55
2024-04-25T16:34:52.311Z,1.90
2024-04-25T16:37:21.109Z,2.13
2024-04-25T16:39:49.488Z,2.97
2024-04-25T16:42:17.119Z,2.28
2024-04-25T16:44:44.516Z,2.03
2024-04-25T16:47:14.186Z,1.95
2024-04-25T16:49:41.604Z,2.30
2024-04-25T16:52:10.562Z,1.85
2024-04-25T16:54:40.033Z,1.95
2024-04-25T16:57:09.264Z,4.35
2024-04-25T16:59:38.595Z,2.95
2024-04-25T17:02:08.840Z,4.95
2024-04-25T17:04:41.710Z,4.93
2024-04-25T17:09:41.744Z,2.70
2024-04-25T17:12:11.883Z,3.10
2024-04-25T17:14:40.652Z,3.03
2024-04-25T17:17:10.864Z,2.63
2024-04-25T17:19:39.896Z,2.72
2024-04-25T17:22:12.476Z,3.15
2024-04-25T17:24:46.414Z,2.95
2024-04-25T17:27:16.691Z,3.35
2024-04-25T17:29:45.565Z,2.90
2024-04-25T17:32:14.084Z,2.50
2024-04-25T17:34:44.488Z,4.72
2024-04-25T17:37:15.223Z,2.38
2024-04-25T17:39:51.449Z,3.25
2024-04-25T17:42:21.610Z,2.20
2024-04-25T17:44:59.015Z,3.22
2024-04-25T17:47:31.110Z,2.35
2024-04-25T17:50:06.968Z,2.25
2024-04-25T17:52:39.551Z,3.35
2024-04-25T17:55:08.318Z,3.22
2024-04-25T17:57:35.661Z,3.50
2024-04-25T18:00:03.401Z,4.15
2024-04-25T18:02:36.884Z,7.03
2024-04-25T18:05:14.368Z,3.30
2024-04-25T18:07:45.991Z,4.70
2024-04-25T18:10:19.828Z,4.20
2024-04-25T18:12:49.582Z,3.75
2024-04-25T18:15:21.875Z,4.45
2024-04-25T18:17:54.579Z,4.95
2024-04-25T18:20:23.931Z,3.58
2024-04-25T18:22:51.431Z,4.10
2024-04-25T18:25:20.074Z,6.35
2024-04-25T18:27:47.584Z,8.07
2024-04-25T18:30:16.781Z,10.70
2024-04-25T18:32:46.948Z,9.23
2024-04-25T18:35:15.417Z,9.95
2024-04-25T18:37:47.823Z,7.82
2024-04-25T18:40:15.815Z,7.90
2024-04-25T18:42:45.286Z,7.65
2024-04-25T18:45:12.945Z,6.15
2024-04-25T18:47:40.233Z,5.03
2024-04-25T18:50:09.788Z,4.65
2024-04-25T18:52:37.500Z,5.03
2024-04-25T18:55:05.188Z,6.35
2024-04-25T18:57:35.084Z,6.97
2024-04-25T19:00:05.262Z,8.13
2024-04-25T19:02:34.818Z,4.82
2024-04-25T19:05:02.239Z,4.50
2024-04-25T19:07:35.182Z,5.38
2024-04-25T19:12:35.138Z,6.60
2024-04-25T19:15:03.539Z,5.40
2024-04-25T19:17:32.042Z,6.32
2024-04-25T19:19:59.433Z,9.60
2024-04-25T19:22:35.859Z,8.57
2024-04-25T19:25:05.146Z,7.55
2024-04-25T19:27:35.498Z,8.55
2024-04-25T19:30:03.257Z,8.85
2024-04-25T19:32:33.426Z,7.40
2024-04-25T19:35:02.327Z,9.80
2024-04-25T19:37:30.953Z,10.65
2024-04-25T19:39:58.635Z,13.57
2024-04-25T19:42:28.545Z,9.63
2024-04-25T19:44:59.432Z,9.90
2024-04-25T19:47:28.996Z,7.72
2024-04-25T19:49:59.382Z,5.25
2024-04-25T19:52:29.349Z,7.40
2024-04-25T19:54:56.701Z,6.20
2024-04-25T19:57:24.935Z,6.00
2024-04-25T19:59:52.846Z,6.93
2024-04-25T20:02:20.592Z,7.45
2024-04-25T20:04:49.390Z,5.10
2024-04-25T20:07:20.898Z,7.75
2024-04-25T20:09:51.789Z,9.45
2024-04-25T20:12:23.780Z,8.15
2024-04-25T20:14:55.868Z,10.57
2024-04-25T20:17:48.012Z,6.50
2024-04-25T20:20:36.204Z,10.52
2024-04-25T20:23:07.012Z,9.75
2024-04-25T20:25:37.905Z,9.85
2024-04-25T20:28:07.743Z,6.95
2024-04-25T20:30:35.506Z,9.85
2024-04-25T20:33:05.782Z,9.77
2024-04-25T20:35:34.987Z,10.55
2024-04-25T20:38:02.219Z,9.15
2024-04-25T20:40:31.342Z,10.70
2024-04-25T20:42:59.737Z,7.82
2024-04-25T20:45:29.990Z,8.35
2024-04-25T20:47:58.051Z,9.10
2024-04-25T20:50:25.296Z,8.80
2024-04-25T20:52:54.539Z,8.18
2024-04-25T20:55:23.183Z,9.93
2024-04-25T20:57:50.781Z,11.43
2024-04-25T21:00:18.619Z,11.15
2024-04-25T21:02:49.723Z,13.57
2024-04-25T21:05:22.100Z,11.32
2024-04-25T21:07:50.599Z,12.50
2024-04-25T21:10:20.384Z,10.40
2024-04-25T21:12:48.308Z,12.55
2024-04-25T21:15:16.873Z,14.07
2024-04-25T21:17:46.124Z,11.15
2024-04-25T21:20:13.987Z,12.30
2024-04-25T21:22:43.156Z,11.68
2024-04-25T21:25:11.586Z,10.77
2024-04-25T21:27:39.508Z,9.38
2024-04-25T21:30:07.809Z,11.55
2024-04-25T21:32:42.896Z,11.63
2024-04-25T21:35:13.350Z,9.55
2024-04-25T21:37:40.473Z,11.40
2024-04-25T21:40:08.222Z,14.38
2024-04-25T21:42:35.780Z,11.15
2024-04-25T21:45:04.267Z,9.40
2024-04-25T21:47:32.404Z,9.90
2024-04-25T21:50:00.083Z,12.30
2024-04-25T21:52:27.644Z,10.05
2024-04-25T21:54:54.860Z,10.35
2024-04-25T21:57:24.298Z,9.23
2024-04-25T21:59:51.579Z,9.95
2024-04-25T22:02:19.387Z,10.05
2024-04-25T22:04:46.759Z,10.95
2024-04-25T22:07:14.624Z,10.50
2024-04-25T22:09:42.070Z,11.68
2024-04-25T22:12:12.414Z,12.20
2024-04-25T22:14:40.810Z,10.35
2024-04-25T22:17:10.883Z,16.63
2024-04-25T22:19:38.977Z,12.20
2024-04-25T22:22:06.307Z,13.50
2024-04-25T22:24:33.610Z,9.05
2024-04-25T22:27:01.481Z,9.98
2024-04-25T22:29:29.557Z,11.30
2024-04-25T22:31:56.754Z,10.75
2024-04-25T22:34:24.866Z,9.73
2024-04-25T22:36:52.270Z,8.38
2024-04-25T22:39:19.997Z,11.20
2024-04-25T22:41:47.657Z,9.23
2024-04-25T22:44:15.422Z,9.10
2024-04-25T22:46:42.946Z,10.80
2024-04-25T22:49:10.631Z,9.18
2024-04-25T22:51:41.753Z,9.18
2024-04-25T22:54:09.430Z,9.63
2024-04-25T22:56:36.732Z,10.05
2024-04-25T22:59:04.545Z,11.60
2024-04-25T23:01:32.649Z,10.25
2024-04-25T23:04:01.182Z,10.23
2024-04-25T23:06:28.700Z,8.82
2024-04-25T23:08:56.315Z,10.15
2024-04-25T23:11:23.603Z,9.70
2024-04-25T23:13:52.802Z,10.43
2024-04-25T23:16:20.301Z,9.13
2024-04-25T23:18:47.804Z,9.88
2024-04-25T23:21:15.182Z,9.50
2024-04-25T23:23:42.722Z,8.68
2024-04-25T23:26:10.142Z,10.27
2024-04-25T23:28:37.299Z,10.32
2024-04-25T23:31:04.803Z,10.57
2024-04-25T23:33:32.186Z,10.38
2024-04-25T23:36:03.827Z,10.43
2024-04-25T23:38:31.146Z,8.13
2024-04-25T23:40:58.392Z,10.05
2024-04-25T23:43:26.142Z,8.48
2024-04-25T23:45:53.601Z,9.27
2024-04-25T23:48:21.790Z,8.75
2024-04-25T23:50:50.588Z,7.45
2024-04-25T23:53:18.795Z,10.07
2024-04-25T23:55:45.984Z,10.70
2024-04-25T23:58:13.505Z,9.70
